sensor_id;sensor_type;location;lat;lon;timestamp;pressure;altitude;pressure_sealevel;temperature;humidity
52693;BME280;68218;51.012;-1.648;2023-05-23T00:01:17;101595.59;;;12.09;58.97
52693;BME280;68218;51.012;-1.648;2023-05-23T00:03:42;101601.75;;;12.05;57.55
52693;BME280;68218;51.012;-1.648;2023-05-23T00:06:08;101592.09;;;11.97;57.00
52693;BME280;68218;51.012;-1.648;2023-05-23T00:08:34;101582.00;;;11.92;56.16
52693;BME280;68218;51.012;-1.648;2023-05-23T00:10:59;101590.56;;;11.89;55.88
52693;BME280;68218;51.012;-1.648;2023-05-23T00:13:25;101593.50;;;11.88;55.35
52693;BME280;68218;51.012;-1.648;2023-05-23T00:15:51;101592.78;;;11.80;54.62
52693;BME280;68218;51.012;-1.648;2023-05-23T00:18:17;101587.03;;;11.77;54.12
52693;BME280;68218;51.012;-1.648;2023-05-23T00:20:43;101588.34;;;11.74;54.17
52693;BME280;68218;51.012;-1.648;2023-05-23T00:23:09;101592.09;;;11.73;53.89
52693;BME280;68218;51.012;-1.648;2023-05-23T00:25:38;101584.72;;;11.69;53.82
52693;BME280;68218;51.012;-1.648;2023-05-23T00:28:05;101583.19;;;11.61;54.02
52693;BME280;68218;51.012;-1.648;2023-05-23T00:30:32;101589.50;;;11.67;54.02
52693;BME280;68218;51.012;-1.648;2023-05-23T00:32:58;101598.22;;;11.57;53.92
52693;BME280;68218;51.012;-1.648;2023-05-23T00:35:24;101597.63;;;11.55;53.35
52693;BME280;68218;51.012;-1.648;2023-05-23T00:37:50;101602.69;;;11.63;53.06
52693;BME280;68218;51.012;-1.648;2023-05-23T00:40:19;101596.94;;;11.59;52.98
52693;BME280;68218;51.012;-1.648;2023-05-23T00:42:46;101605.84;;;11.60;52.84
52693;BME280;68218;51.012;-1.648;2023-05-23T00:45:12;101603.16;;;11.60;52.82
52693;BME280;68218;51.012;-1.648;2023-05-23T00:47:41;101593.28;;;11.54;52.88
52693;BME280;68218;51.012;-1.648;2023-05-23T00:50:13;101599.41;;;11.49;53.04
52693;BME280;68218;51.012;-1.648;2023-05-23T00:52:41;101588.81;;;11.48;53.32
52693;BME280;68218;51.012;-1.648;2023-05-23T00:55:07;101593.88;;;11.44;53.50
52693;BME280;68218;51.012;-1.648;2023-05-23T00:57:33;101602.31;;;11.48;53.55
52693;BME280;68218;51.012;-1.648;2023-05-23T01:00:00;101601.75;;;11.46;53.41
52693;BME280;68218;51.012;-1.648;2023-05-23T01:02:26;101595.75;;;11.43;53.47
52693;BME280;68218;51.012;-1.648;2023-05-23T01:04:54;101604.69;;;11.44;53.30
52693;BME280;68218;51.012;-1.648;2023-05-23T01:07:20;101600.59;;;11.41;53.16
52693;BME280;68218;51.012;-1.648;2023-05-23T01:09:46;101598.00;;;11.47;53.11
52693;BME280;68218;51.012;-1.648;2023-05-23T01:12:33;101588.47;;;11.44;52.76
52693;BME280;68218;51.012;-1.648;2023-05-23T01:20:11;101599.50;;;11.31;54.11
52693;BME280;68218;51.012;-1.648;2023-05-23T01:22:41;101605.63;;;11.26;54.38
52693;BME280;68218;51.012;-1.648;2023-05-23T01:28:27;101616.63;;;11.13;55.16
52693;BME280;68218;51.012;-1.648;2023-05-23T01:30:56;101611.47;;;11.11;55.37
52693;BME280;68218;51.012;-1.648;2023-05-23T01:33:24;101618.97;;;11.09;55.60
52693;BME280;68218;51.012;-1.648;2023-05-23T01:35:50;101612.72;;;11.09;56.10
52693;BME280;68218;51.012;-1.648;2023-05-23T01:38:15;101612.03;;;11.01;56.64
52693;BME280;68218;51.012;-1.648;2023-05-23T01:40:41;101610.94;;;10.91;57.11
52693;BME280;68218;51.012;-1.648;2023-05-23T01:43:07;101610.34;;;10.89;57.22
52693;BME280;68218;51.012;-1.648;2023-05-23T01:45:32;101618.31;;;10.83;57.67
52693;BME280;68218;51.012;-1.648;2023-05-23T01:47:58;101615.84;;;10.82;57.93
52693;BME280;68218;51.012;-1.648;2023-05-23T01:50:25;101609.28;;;10.90;57.88
52693;BME280;68218;51.012;-1.648;2023-05-23T01:52:51;101613.59;;;10.79;58.31
52693;BME280;68218;51.012;-1.648;2023-05-23T01:55:19;101615.16;;;10.86;58.38
52693;BME280;68218;51.012;-1.648;2023-05-23T01:57:56;101617.88;;;10.86;58.54
52693;BME280;68218;51.012;-1.648;2023-05-23T02:00:22;101620.88;;;10.78;59.19
52693;BME280;68218;51.012;-1.648;2023-05-23T02:02:48;101619.44;;;10.76;59.09
52693;BME280;68218;51.012;-1.648;2023-05-23T02:05:14;101615.81;;;10.70;59.28
52693;BME280;68218;51.012;-1.648;2023-05-23T02:07:39;101603.13;;;10.71;59.46
52693;BME280;68218;51.012;-1.648;2023-05-23T02:10:07;101608.06;;;10.74;59.63
52693;BME280;68218;51.012;-1.648;2023-05-23T02:12:33;101607.25;;;10.73;59.85
52693;BME280;68218;51.012;-1.648;2023-05-23T02:14:58;101612.75;;;10.66;59.93
52693;BME280;68218;51.012;-1.648;2023-05-23T02:17:24;101619.31;;;10.71;59.76
52693;BME280;68218;51.012;-1.648;2023-05-23T02:19:49;101613.19;;;10.63;60.04
52693;BME280;68218;51.012;-1.648;2023-05-23T02:22:15;101614.16;;;10.69;59.95
52693;BME280;68218;51.012;-1.648;2023-05-23T02:24:40;101618.50;;;10.70;60.13
52693;BME280;68218;51.012;-1.648;2023-05-23T02:27:06;101618.72;;;10.68;60.19
52693;BME280;68218;51.012;-1.648;2023-05-23T02:29:31;101625.03;;;10.62;60.42
52693;BME280;68218;51.012;-1.648;2023-05-23T02:31:56;101619.50;;;10.57;60.57
52693;BME280;68218;51.012;-1.648;2023-05-23T02:34:22;101616.06;;;10.50;60.73
52693;BME280;68218;51.012;-1.648;2023-05-23T02:36:47;101623.94;;;10.52;61.09
52693;BME280;68218;51.012;-1.648;2023-05-23T02:39:13;101618.19;;;10.48;61.25
52693;BME280;68218;51.012;-1.648;2023-05-23T02:41:39;101622.97;;;10.46;61.25
52693;BME280;68218;51.012;-1.648;2023-05-23T02:44:04;101625.91;;;10.44;61.41
52693;BME280;68218;51.012;-1.648;2023-05-23T02:46:30;101631.59;;;10.36;61.88
52693;BME280;68218;51.012;-1.648;2023-05-23T02:48:55;101624.56;;;10.35;62.27
52693;BME280;68218;51.012;-1.648;2023-05-23T02:51:21;101635.38;;;10.35;62.31
52693;BME280;68218;51.012;-1.648;2023-05-23T02:53:46;101635.38;;;10.35;62.52
52693;BME280;68218;51.012;-1.648;2023-05-23T02:56:11;101632.03;;;10.33;62.67
52693;BME280;68218;51.012;-1.648;2023-05-23T02:58:37;101635.59;;;10.34;63.06
52693;BME280;68218;51.012;-1.648;2023-05-23T03:01:04;101632.66;;;10.35;63.01
52693;BME280;68218;51.012;-1.648;2023-05-23T03:03:30;101636.00;;;10.30;63.22
52693;BME280;68218;51.012;-1.648;2023-05-23T03:06:02;101635.84;;;10.25;63.49
52693;BME280;68218;51.012;-1.648;2023-05-23T03:08:29;101637.38;;;10.21;63.85
52693;BME280;68218;51.012;-1.648;2023-05-23T03:10:54;101635.47;;;10.22;64.01
52693;BME280;68218;51.012;-1.648;2023-05-23T03:13:20;101635.03;;;10.25;64.13
52693;BME280;68218;51.012;-1.648;2023-05-23T03:15:46;101632.56;;;10.23;64.41
52693;BME280;68218;51.012;-1.648;2023-05-23T03:18:11;101631.97;;;10.21;64.54
52693;BME280;68218;51.012;-1.648;2023-05-23T03:20:37;101628.81;;;10.24;64.93
52693;BME280;68218;51.012;-1.648;2023-05-23T03:23:02;101621.34;;;10.26;64.99
52693;BME280;68218;51.012;-1.648;2023-05-23T03:25:28;101623.63;;;10.23;65.02
52693;BME280;68218;51.012;-1.648;2023-05-23T03:27:53;101618.00;;;10.24;65.28
52693;BME280;68218;51.012;-1.648;2023-05-23T03:30:19;101624.03;;;10.26;65.21
52693;BME280;68218;51.012;-1.648;2023-05-23T03:32:45;101625.16;;;10.19;65.63
52693;BME280;68218;51.012;-1.648;2023-05-23T03:35:10;101621.41;;;10.20;65.80
52693;BME280;68218;51.012;-1.648;2023-05-23T03:37:36;101619.38;;;10.15;65.97
52693;BME280;68218;51.012;-1.648;2023-05-23T03:40:02;101618.78;;;10.13;66.33
52693;BME280;68218;51.012;-1.648;2023-05-23T03:42:27;101625.59;;;10.16;66.60
52693;BME280;68218;51.012;-1.648;2023-05-23T03:44:53;101621.84;;;10.17;66.79
52693;BME280;68218;51.012;-1.648;2023-05-23T03:47:19;101620.75;;;10.06;67.18
52693;BME280;68218;51.012;-1.648;2023-05-23T03:49:44;101622.38;;;10.07;67.31
52693;BME280;68218;51.012;-1.648;2023-05-23T03:52:10;101633.97;;;10.07;67.42
52693;BME280;68218;51.012;-1.648;2023-05-23T03:54:35;101625.06;;;10.07;67.50
52693;BME280;68218;51.012;-1.648;2023-05-23T03:57:01;101624.63;;;10.10;67.55
52693;BME280;68218;51.012;-1.648;2023-05-23T03:59:27;101628.72;;;10.12;67.46
52693;BME280;68218;51.012;-1.648;2023-05-23T04:01:52;101633.31;;;10.12;67.29
52693;BME280;68218;51.012;-1.648;2023-05-23T04:04:18;101635.63;;;10.08;67.66
52693;BME280;68218;51.012;-1.648;2023-05-23T04:06:45;101643.72;;;10.08;68.00
52693;BME280;68218;51.012;-1.648;2023-05-23T04:09:11;101637.50;;;10.08;68.08
52693;BME280;68218;51.012;-1.648;2023-05-23T04:11:38;101638.09;;;10.10;68.63
52693;BME280;68218;51.012;-1.648;2023-05-23T04:14:03;101643.72;;;10.08;68.41
52693;BME280;68218;51.012;-1.648;2023-05-23T04:16:29;101641.63;;;10.10;68.30
52693;BME280;68218;51.012;-1.648;2023-05-23T04:18:57;101636.44;;;10.09;68.57
52693;BME280;68218;51.012;-1.648;2023-05-23T04:21:23;101642.47;;;10.11;68.44
52693;BME280;68218;51.012;-1.648;2023-05-23T04:23:48;101637.50;;;10.08;68.92
52693;BME280;68218;51.012;-1.648;2023-05-23T04:26:14;101639.38;;;10.07;69.14
52693;BME280;68218;51.012;-1.648;2023-05-23T04:28:39;101644.53;;;10.09;69.12
52693;BME280;68218;51.012;-1.648;2023-05-23T04:31:05;101640.13;;;10.15;69.09
52693;BME280;68218;51.012;-1.648;2023-05-23T04:33:30;101639.13;;;10.09;69.18
52693;BME280;68218;51.012;-1.648;2023-05-23T04:35:58;101645.59;;;10.08;69.29
52693;BME280;68218;51.012;-1.648;2023-05-23T04:38:23;101648.66;;;10.11;69.25
52693;BME280;68218;51.012;-1.648;2023-05-23T04:40:49;101645.53;;;10.15;69.41
52693;BME280;68218;51.012;-1.648;2023-05-23T04:43:17;101651.59;;;10.10;69.55
52693;BME280;68218;51.012;-1.648;2023-05-23T04:45:44;101660.72;;;10.09;69.65
52693;BME280;68218;51.012;-1.648;2023-05-23T04:48:10;101658.47;;;10.06;69.90
52693;BME280;68218;51.012;-1.648;2023-05-23T04:50:37;101657.94;;;9.97;70.16
52693;BME280;68218;51.012;-1.648;2023-05-23T04:53:05;101665.72;;;10.05;70.19
52693;BME280;68218;51.012;-1.648;2023-05-23T04:55:30;101662.06;;;10.00;70.52
52693;BME280;68218;51.012;-1.648;2023-05-23T04:57:56;101675.16;;;9.96;70.64
52693;BME280;68218;51.012;-1.648;2023-05-23T05:00:22;101673.34;;;9.90;71.27
52693;BME280;68218;51.012;-1.648;2023-05-23T05:02:47;101669.16;;;9.94;70.86
52693;BME280;68218;51.012;-1.648;2023-05-23T05:05:13;101671.56;;;10.02;70.99
52693;BME280;68218;51.012;-1.648;2023-05-23T05:07:38;101685.28;;;10.01;71.26
52693;BME280;68218;51.012;-1.648;2023-05-23T05:10:05;101682.75;;;10.06;71.05
52693;BME280;68218;51.012;-1.648;2023-05-23T05:12:30;101689.59;;;10.02;71.39
52693;BME280;68218;51.012;-1.648;2023-05-23T05:14:56;101684.38;;;10.07;71.09
52693;BME280;68218;51.012;-1.648;2023-05-23T05:17:21;101684.53;;;10.12;71.30
52693;BME280;68218;51.012;-1.648;2023-05-23T05:19:47;101679.94;;;10.12;71.20
52693;BME280;68218;51.012;-1.648;2023-05-23T05:22:12;101679.34;;;10.10;71.30
52693;BME280;68218;51.012;-1.648;2023-05-23T05:24:37;101687.06;;;10.07;71.64
52693;BME280;68218;51.012;-1.648;2023-05-23T05:27:05;101698.59;;;10.14;71.80
52693;BME280;68218;51.012;-1.648;2023-05-23T05:29:30;101701.28;;;10.14;71.83
52693;BME280;68218;51.012;-1.648;2023-05-23T05:31:58;101698.59;;;10.14;71.85
52693;BME280;68218;51.012;-1.648;2023-05-23T05:34:25;101700.19;;;10.22;71.72
52693;BME280;68218;51.012;-1.648;2023-05-23T05:36:51;101696.44;;;10.23;71.72
52693;BME280;68218;51.012;-1.648;2023-05-23T05:39:21;101692.97;;;10.41;71.43
52693;BME280;68218;51.012;-1.648;2023-05-23T05:41:47;101690.94;;;10.36;71.91
52693;BME280;68218;51.012;-1.648;2023-05-23T05:44:12;101695.94;;;10.33;71.98
52693;BME280;68218;51.012;-1.648;2023-05-23T05:46:38;101696.31;;;10.36;71.83
52693;BME280;68218;51.012;-1.648;2023-05-23T05:49:03;101688.31;;;10.48;71.85
52693;BME280;68218;51.012;-1.648;2023-05-23T05:51:29;101698.06;;;10.49;71.73
52693;BME280;68218;51.012;-1.648;2023-05-23T05:53:55;101694.22;;;10.57;71.58
52693;BME280;68218;51.012;-1.648;2023-05-23T05:56:21;101691.88;;;10.60;71.47
52693;BME280;68218;51.012;-1.648;2023-05-23T05:58:47;101690.75;;;10.68;71.37
52693;BME280;68218;51.012;-1.648;2023-05-23T06:01:12;101690.69;;;10.75;71.00
52693;BME280;68218;51.012;-1.648;2023-05-23T06:03:38;101696.34;;;10.85;71.01
52693;BME280;68218;51.012;-1.648;2023-05-23T06:06:04;101688.72;;;10.82;70.83
52693;BME280;68218;51.012;-1.648;2023-05-23T06:08:29;101689.31;;;10.84;70.90
52693;BME280;68218;51.012;-1.648;2023-05-23T06:10:55;101708.56;;;10.87;71.17
52693;BME280;68218;51.012;-1.648;2023-05-23T06:13:21;101699.78;;;10.92;71.33
52693;BME280;68218;51.012;-1.648;2023-05-23T06:15:46;101708.19;;;10.84;71.42
52693;BME280;68218;51.012;-1.648;2023-05-23T06:18:11;101709.38;;;10.88;71.50
52693;BME280;68218;51.012;-1.648;2023-05-23T06:20:37;101712.69;;;10.90;71.75
52693;BME280;68218;51.012;-1.648;2023-05-23T06:23:02;101711.31;;;10.99;70.89
52693;BME280;68218;51.012;-1.648;2023-05-23T06:25:30;101722.38;;;11.10;71.16
52693;BME280;68218;51.012;-1.648;2023-05-23T06:27:55;101712.66;;;11.20;70.66
52693;BME280;68218;51.012;-1.648;2023-05-23T06:30:21;101719.19;;;11.31;70.58
52693;BME280;68218;51.012;-1.648;2023-05-23T06:32:47;101714.41;;;11.45;70.02
52693;BME280;68218;51.012;-1.648;2023-05-23T06:35:13;101710.28;;;11.54;70.14
52693;BME280;68218;51.012;-1.648;2023-05-23T06:37:38;101694.91;;;11.43;70.06
52693;BME280;68218;51.012;-1.648;2023-05-23T06:40:07;101707.78;;;11.41;69.80
52693;BME280;68218;51.012;-1.648;2023-05-23T06:42:33;101699.13;;;11.51;70.22
52693;BME280;68218;51.012;-1.648;2023-05-23T06:44:59;101700.78;;;11.75;69.96
52693;BME280;68218;51.012;-1.648;2023-05-23T06:47:24;101704.81;;;11.85;69.52
52693;BME280;68218;51.012;-1.648;2023-05-23T06:49:49;101697.63;;;11.90;68.79
52693;BME280;68218;51.012;-1.648;2023-05-23T06:52:15;101697.06;;;12.00;67.19
52693;BME280;68218;51.012;-1.648;2023-05-23T06:54:40;101693.56;;;11.99;66.62
52693;BME280;68218;51.012;-1.648;2023-05-23T06:57:06;101707.78;;;12.18;66.78
52693;BME280;68218;51.012;-1.648;2023-05-23T06:59:31;101707.72;;;12.42;66.05
52693;BME280;68218;51.012;-1.648;2023-05-23T07:01:57;101704.22;;;12.30;65.65
52693;BME280;68218;51.012;-1.648;2023-05-23T07:04:22;101709.84;;;12.40;64.75
52693;BME280;68218;51.012;-1.648;2023-05-23T07:06:48;101708.22;;;12.27;65.34
52693;BME280;68218;51.012;-1.648;2023-05-23T07:09:14;101715.03;;;12.82;64.10
52693;BME280;68218;51.012;-1.648;2023-05-23T07:11:39;101703.03;;;13.07;64.65
52693;BME280;68218;51.012;-1.648;2023-05-23T07:14:05;101714.16;;;12.93;63.67
52693;BME280;68218;51.012;-1.648;2023-05-23T07:16:32;101708.44;;;13.07;63.35
52693;BME280;68218;51.012;-1.648;2023-05-23T07:18:57;101716.66;;;13.12;62.28
52693;BME280;68218;51.012;-1.648;2023-05-23T07:21:22;101715.44;;;13.32;61.40
52693;BME280;68218;51.012;-1.648;2023-05-23T07:23:48;101710.94;;;13.71;60.42
52693;BME280;68218;51.012;-1.648;2023-05-23T07:26:13;101706.19;;;14.17;60.57
52693;BME280;68218;51.012;-1.648;2023-05-23T07:28:39;101721.50;;;13.90;59.02
52693;BME280;68218;51.012;-1.648;2023-05-23T07:31:04;101718.19;;;14.04;59.49
52693;BME280;68218;51.012;-1.648;2023-05-23T07:33:33;101727.13;;;13.83;60.35
52693;BME280;68218;51.012;-1.648;2023-05-23T07:35:58;101723.81;;;13.64;60.38
52693;BME280;68218;51.012;-1.648;2023-05-23T07:38:25;101731.50;;;13.38;60.57
52693;BME280;68218;51.012;-1.648;2023-05-23T07:40:51;101737.47;;;13.52;60.07
52693;BME280;68218;51.012;-1.648;2023-05-23T07:43:16;101738.28;;;13.70;58.63
52693;BME280;68218;51.012;-1.648;2023-05-23T07:45:42;101736.16;;;13.89;57.97
52693;BME280;68218;51.012;-1.648;2023-05-23T07:48:08;101730.41;;;14.85;58.01
52693;BME280;68218;51.012;-1.648;2023-05-23T07:50:33;101738.22;;;15.31;55.33
52693;BME280;68218;51.012;-1.648;2023-05-23T07:52:59;101734.78;;;14.64;55.89
52693;BME280;68218;51.012;-1.648;2023-05-23T07:55:24;101740.97;;;14.42;56.26
52693;BME280;68218;51.012;-1.648;2023-05-23T07:57:51;101742.16;;;14.91;56.83
52693;BME280;68218;51.012;-1.648;2023-05-23T08:00:19;101740.28;;;14.52;56.19
52693;BME280;68218;51.012;-1.648;2023-05-23T08:02:44;101731.22;;;14.41;57.16
52693;BME280;68218;51.012;-1.648;2023-05-23T08:05:10;101741.41;;;14.12;57.57
52693;BME280;68218;51.012;-1.648;2023-05-23T08:07:35;101736.03;;;14.17;57.54
52693;BME280;68218;51.012;-1.648;2023-05-23T08:10:00;101746.72;;;14.24;56.28
52693;BME280;68218;51.012;-1.648;2023-05-23T08:12:26;101741.81;;;14.43;55.35
52693;BME280;68218;51.012;-1.648;2023-05-23T08:14:51;101737.63;;;14.35;55.25
52693;BME280;68218;51.012;-1.648;2023-05-23T08:17:17;101732.97;;;14.53;55.73
52693;BME280;68218;51.012;-1.648;2023-05-23T08:19:42;101733.59;;;15.04;55.27
52693;BME280;68218;51.012;-1.648;2023-05-23T08:22:08;101732.22;;;15.29;54.16
52693;BME280;68218;51.012;-1.648;2023-05-23T08:24:33;101725.75;;;15.35;53.52
52693;BME280;68218;51.012;-1.648;2023-05-23T08:26:59;101724.84;;;15.24;53.53
52693;BME280;68218;51.012;-1.648;2023-05-23T08:29:24;101728.84;;;15.16;54.30
52693;BME280;68218;51.012;-1.648;2023-05-23T08:31:50;101729.75;;;15.00;53.85
52693;BME280;68218;51.012;-1.648;2023-05-23T08:34:15;101730.22;;;14.92;54.42
52693;BME280;68218;51.012;-1.648;2023-05-23T08:36:41;101729.41;;;15.19;54.03
52693;BME280;68218;51.012;-1.648;2023-05-23T08:39:07;101733.25;;;15.23;53.15
52693;BME280;68218;51.012;-1.648;2023-05-23T08:41:33;101721.63;;;15.60;53.10
52693;BME280;68218;51.012;-1.648;2023-05-23T08:43:59;101723.53;;;15.64;52.08
52693;BME280;68218;51.012;-1.648;2023-05-23T08:46:25;101732.19;;;15.56;51.73
52693;BME280;68218;51.012;-1.648;2023-05-23T08:48:53;101725.31;;;15.48;52.74
52693;BME280;68218;51.012;-1.648;2023-05-23T08:51:21;101730.88;;;15.04;52.56
52693;BME280;68218;51.012;-1.648;2023-05-23T08:53:48;101735.91;;;15.17;52.43
52693;BME280;68218;51.012;-1.648;2023-05-23T08:56:14;101730.75;;;15.76;52.48
52693;BME280;68218;51.012;-1.648;2023-05-23T08:58:42;101726.13;;;15.49;52.77
52693;BME280;68218;51.012;-1.648;2023-05-23T09:01:08;101727.81;;;15.23;52.16
52693;BME280;68218;51.012;-1.648;2023-05-23T09:03:35;101710.19;;;15.95;52.49
52693;BME280;68218;51.012;-1.648;2023-05-23T09:06:03;101727.31;;;15.90;50.62
52693;BME280;68218;51.012;-1.648;2023-05-23T09:08:30;101713.66;;;15.80;50.28
52693;BME280;68218;51.012;-1.648;2023-05-23T09:10:56;101714.78;;;16.32;50.30
52693;BME280;68218;51.012;-1.648;2023-05-23T09:13:21;101712.94;;;16.00;49.12
52693;BME280;68218;51.012;-1.648;2023-05-23T09:16:00;101709.03;;;16.28;49.87
52693;BME280;68218;51.012;-1.648;2023-05-23T09:18:31;101703.19;;;16.57;51.33
52693;BME280;68218;51.012;-1.648;2023-05-23T09:20:57;101701.22;;;16.47;50.23
52693;BME280;68218;51.012;-1.648;2023-05-23T09:23:23;101718.22;;;16.17;51.00
52693;BME280;68218;51.012;-1.648;2023-05-23T09:25:48;101715.84;;;15.88;51.86
52693;BME280;68218;51.012;-1.648;2023-05-23T09:28:14;101712.09;;;16.42;50.99
52693;BME280;68218;51.012;-1.648;2023-05-23T09:30:40;101712.72;;;16.60;50.03
52693;BME280;68218;51.012;-1.648;2023-05-23T09:33:05;101721.06;;;16.38;51.15
52693;BME280;68218;51.012;-1.648;2023-05-23T09:35:31;101715.31;;;16.97;50.21
52693;BME280;68218;51.012;-1.648;2023-05-23T09:37:57;101714.53;;;17.07;48.88
52693;BME280;68218;51.012;-1.648;2023-05-23T09:40:30;101716.38;;;16.91;49.31
52693;BME280;68218;51.012;-1.648;2023-05-23T09:43:03;101721.50;;;16.82;49.09
52693;BME280;68218;51.012;-1.648;2023-05-23T09:45:30;101722.94;;;16.95;48.91
52693;BME280;68218;51.012;-1.648;2023-05-23T09:47:55;101708.25;;;17.53;49.46
52693;BME280;68218;51.012;-1.648;2023-05-23T09:50:22;101717.00;;;17.24;48.21
52693;BME280;68218;51.012;-1.648;2023-05-23T09:52:48;101723.25;;;17.09;48.79
52693;BME280;68218;51.012;-1.648;2023-05-23T09:55:13;101719.72;;;17.29;46.79
52693;BME280;68218;51.012;-1.648;2023-05-23T09:57:41;101724.94;;;17.67;47.84
52693;BME280;68218;51.012;-1.648;2023-05-23T10:00:07;101719.72;;;17.24;46.97
52693;BME280;68218;51.012;-1.648;2023-05-23T10:02:55;101715.63;;;17.27;47.03
52693;BME280;68218;51.012;-1.648;2023-05-23T10:05:52;101726.75;;;17.04;47.00
52693;BME280;68218;51.012;-1.648;2023-05-23T10:08:29;101726.81;;;17.56;47.30
52693;BME280;68218;51.012;-1.648;2023-05-23T10:13:26;101726.22;;;18.26;44.79
52693;BME280;68218;51.012;-1.648;2023-05-23T10:15:56;101731.34;;;18.43;44.87
52693;BME280;68218;51.012;-1.648;2023-05-23T10:18:26;101733.63;;;18.15;45.96
52693;BME280;68218;51.012;-1.648;2023-05-23T10:20:56;101734.97;;;18.12;45.24
52693;BME280;68218;51.012;-1.648;2023-05-23T10:23:28;101733.03;;;18.28;47.14
52693;BME280;68218;51.012;-1.648;2023-05-23T10:25:54;101727.22;;;19.50;45.81
52693;BME280;68218;51.012;-1.648;2023-05-23T10:28:19;101732.06;;;18.64;43.03
52693;BME280;68218;51.012;-1.648;2023-05-23T10:30:46;101739.63;;;18.93;43.12
52693;BME280;68218;51.012;-1.648;2023-05-23T10:33:13;101737.69;;;18.23;45.57
52693;BME280;68218;51.012;-1.648;2023-05-23T10:35:57;101737.47;;;17.99;46.37
52693;BME280;68218;51.012;-1.648;2023-05-23T10:38:30;101742.38;;;17.96;45.54
52693;BME280;68218;51.012;-1.648;2023-05-23T10:41:06;101747.00;;;18.11;44.55
52693;BME280;68218;51.012;-1.648;2023-05-23T10:43:41;101747.84;;;17.71;45.89
52693;BME280;68218;51.012;-1.648;2023-05-23T10:46:11;101743.16;;;18.12;45.81
52693;BME280;68218;51.012;-1.648;2023-05-23T10:48:41;101735.00;;;17.97;45.50
52693;BME280;68218;51.012;-1.648;2023-05-23T10:51:11;101733.91;;;17.41;46.32
52693;BME280;68218;51.012;-1.648;2023-05-23T10:53:40;101737.47;;;17.68;47.21
52693;BME280;68218;51.012;-1.648;2023-05-23T10:56:17;101734.13;;;18.27;45.96
52693;BME280;68218;51.012;-1.648;2023-05-23T10:58:44;101738.00;;;17.90;47.63
52693;BME280;68218;51.012;-1.648;2023-05-23T11:01:12;101742.34;;;17.19;46.79
52693;BME280;68218;51.012;-1.648;2023-05-23T11:06:30;101744.94;;;16.78;48.16
52693;BME280;68218;51.012;-1.648;2023-05-23T11:09:13;101749.94;;;16.97;48.08
52693;BME280;68218;51.012;-1.648;2023-05-23T11:14:31;101742.38;;;17.55;49.07
52693;BME280;68218;51.012;-1.648;2023-05-23T11:17:14;101747.00;;;17.39;47.73
52693;BME280;68218;51.012;-1.648;2023-05-23T11:20:05;101750.84;;;17.59;46.94
52693;BME280;68218;51.012;-1.648;2023-05-23T11:22:32;101746.75;;;17.77;47.58
52693;BME280;68218;51.012;-1.648;2023-05-23T11:24:58;101746.94;;;18.37;46.38
52693;BME280;68218;51.012;-1.648;2023-05-23T11:27:33;101739.84;;;18.36;45.97
52693;BME280;68218;51.012;-1.648;2023-05-23T11:30:13;101736.06;;;18.17;47.05
52693;BME280;68218;51.012;-1.648;2023-05-23T11:32:40;101736.44;;;19.20;42.95
52693;BME280;68218;51.012;-1.648;2023-05-23T11:35:08;101737.75;;;18.78;46.12
52693;BME280;68218;51.012;-1.648;2023-05-23T11:37:35;101733.94;;;18.79;43.47
52693;BME280;68218;51.012;-1.648;2023-05-23T11:42:49;101743.19;;;18.88;45.71
52693;BME280;68218;51.012;-1.648;2023-05-23T11:45:18;101733.22;;;18.58;45.55
52693;BME280;68218;51.012;-1.648;2023-05-23T11:47:43;101735.66;;;18.54;45.74
52693;BME280;68218;51.012;-1.648;2023-05-23T11:50:09;101739.25;;;18.49;44.62
52693;BME280;68218;51.012;-1.648;2023-05-23T11:52:35;101740.19;;;18.04;44.58
52693;BME280;68218;51.012;-1.648;2023-05-23T11:55:00;101733.38;;;18.87;45.96
52693;BME280;68218;51.012;-1.648;2023-05-23T11:57:26;101742.16;;;19.23;41.76
52693;BME280;68218;51.012;-1.648;2023-05-23T11:59:52;101743.25;;;18.67;41.17
52693;BME280;68218;51.012;-1.648;2023-05-23T12:02:20;101735.53;;;18.90;42.40
52693;BME280;68218;51.012;-1.648;2023-05-23T12:04:45;101736.91;;;18.87;40.03
52693;BME280;68218;51.012;-1.648;2023-05-23T12:07:10;101745.19;;;18.67;40.88
52693;BME280;68218;51.012;-1.648;2023-05-23T12:09:45;101737.38;;;18.40;41.02
52693;BME280;68218;51.012;-1.648;2023-05-23T12:12:11;101733.47;;;19.16;41.86
52693;BME280;68218;51.012;-1.648;2023-05-23T12:14:37;101730.06;;;19.69;38.62
52693;BME280;68218;51.012;-1.648;2023-05-23T12:17:10;101739.31;;;18.99;38.97
52693;BME280;68218;51.012;-1.648;2023-05-23T12:19:36;101748.75;;;19.17;38.58
52693;BME280;68218;51.012;-1.648;2023-05-23T12:22:05;101744.59;;;19.64;37.09
52693;BME280;68218;51.012;-1.648;2023-05-23T12:24:33;101744.88;;;19.97;36.97
52693;BME280;68218;51.012;-1.648;2023-05-23T12:27:01;101745.56;;;20.37;35.91
52693;BME280;68218;51.012;-1.648;2023-05-23T12:29:32;101747.31;;;19.99;37.83
52693;BME280;68218;51.012;-1.648;2023-05-23T12:31:58;101748.50;;;19.88;35.83
52693;BME280;68218;51.012;-1.648;2023-05-23T12:34:24;101738.78;;;20.06;37.84
52693;BME280;68218;51.012;-1.648;2023-05-23T12:36:53;101745.91;;;20.98;36.91
52693;BME280;68218;51.012;-1.648;2023-05-23T12:39:28;101746.13;;;20.58;34.11
52693;BME280;68218;51.012;-1.648;2023-05-23T12:42:05;101734.72;;;21.13;36.40
52693;BME280;68218;51.012;-1.648;2023-05-23T12:44:30;101735.50;;;21.85;36.57
52693;BME280;68218;51.012;-1.648;2023-05-23T12:46:56;101730.16;;;20.42;35.30
52693;BME280;68218;51.012;-1.648;2023-05-23T12:49:21;101742.13;;;19.97;37.97
52693;BME280;68218;51.012;-1.648;2023-05-23T12:51:47;101745.31;;;20.58;34.86
52693;BME280;68218;51.012;-1.648;2023-05-23T12:54:12;101731.53;;;20.39;33.83
52693;BME280;68218;51.012;-1.648;2023-05-23T12:56:37;101731.53;;;22.05;36.43
52693;BME280;68218;51.012;-1.648;2023-05-23T12:59:03;101745.19;;;20.20;34.21